Time;durP1;ratioP1;P1;durP2;ratioP2;P2;SDS_P1;SDS_P2;PMS_P1;PMS_P2;Temp;Humidity;BMP_temperature;BMP_pressure;BME280_temperature;BME280_humidity;BME280_pressure;Samples;Min_cycle;Max_cycle;Signal;HPM_P1;HPM_P2
2022/04/08 00:03:56;;;;;;;8.23;3.10;;;;;;;;;;10320950;28;20326;-67
2022/04/08 00:08:59;;;;;;;4.35;3.05;;;;;;;;;;10324786;28;20437;-66
2022/04/08 00:14:01;;;;;;;5.72;3.40;;;;;;;;;;10347974;28;20049;-66
2022/04/08 00:19:05;;;;;;;7.07;3.67;;;;;;;;;;10339075;28;20074;-66
2022/04/08 00:24:08;;;;;;;5.93;3.72;;;;;;;;;;10312184;28;20058;-66
2022/04/08 00:29:10;;;;;;;2.83;2.17;;;;;;;;;;10312045;28;20242;-67
2022/04/08 00:34:14;;;;;;;3.00;2.15;;;;;;;;;;10313625;28;20046;-67
2022/04/08 00:39:16;;;;;;;4.20;2.50;;;;;;;;;;10341640;28;20101;-67
2022/04/08 00:44:18;;;;;;;3.90;2.40;;;;;;;;;;10313152;28;20382;-67
2022/04/08 00:49:22;;;;;;;4.88;2.95;;;;;;;;;;10340355;28;20066;-67
2022/04/08 00:54:25;;;;;;;8.38;3.80;;;;;;;;;;10310576;28;20305;-67
2022/04/08 00:59:28;;;;;;;10.50;3.85;;;;;;;;;;10310344;28;20094;-67
2022/04/08 01:04:32;;;;;;;8.80;3.67;;;;;;;;;;10309302;28;20240;-67
2022/04/08 01:09:35;;;;;;;4.30;3.15;;;;;;;;;;10314344;28;20102;-67
2022/04/08 01:14:39;;;;;;;4.65;3.08;;;;;;;;;;10333954;28;20065;-67
2022/04/08 01:19:42;;;;;;;6.63;3.30;;;;;;;;;;10311096;28;20285;-67
2022/04/08 01:24:48;;;;;;;5.90;3.00;;;;;;;;;;10309570;28;20071;-67
2022/04/08 01:29:51;;;;;;;6.75;3.10;;;;;;;;;;10310640;28;20051;-67
2022/04/08 01:34:53;;;;;;;3.85;3.05;;;;;;;;;;10308654;28;20345;-67
2022/04/08 01:39:56;;;;;;;5.03;3.10;;;;;;;;;;10310350;28;20090;-67
2022/04/08 01:44:59;;;;;;;5.85;2.97;;;;;;;;;;10318489;28;20081;-68
2022/04/08 01:50:02;;;;;;;3.92;2.35;;;;;;;;;;10311364;28;20069;-67
2022/04/08 01:55:05;;;;;;;5.55;2.42;;;;;;;;;;10310112;28;20047;-67
2022/04/08 02:00:11;;;;;;;5.80;2.70;;;;;;;;;;10321229;28;20057;-67
2022/04/08 02:05:13;;;;;;;4.43;2.78;;;;;;;;;;10322317;28;20051;-67
2022/04/08 02:10:16;;;;;;;7.70;2.65;;;;;;;;;;10311165;28;20070;-67
2022/04/08 02:15:31;;;;;;;7.60;3.03;;;;;;;;;;10314352;28;20074;-67
2022/04/08 02:20:34;;;;;;;6.35;2.70;;;;;;;;;;10331347;28;20069;-67
2022/04/08 02:25:36;;;;;;;8.80;2.78;;;;;;;;;;10315440;28;20346;-67
2022/04/08 02:30:40;;;;;;;3.80;2.40;;;;;;;;;;10316125;28;20054;-67
2022/04/08 02:35:42;;;;;;;4.72;2.20;;;;;;;;;;10315720;28;20069;-67
2022/04/08 02:40:45;;;;;;;5.30;2.30;;;;;;;;;;10315151;28;20042;-66
2022/04/08 02:45:49;;;;;;;6.72;2.30;;;;;;;;;;10314522;28;20084;-67
2022/04/08 02:50:51;;;;;;;4.75;2.13;;;;;;;;;;10323357;28;20054;-67
2022/04/08 02:55:54;;;;;;;6.13;2.08;;;;;;;;;;10321298;28;20074;-67
2022/04/08 03:00:59;;;;;;;5.07;2.13;;;;;;;;;;10317203;28;20092;-67
2022/04/08 03:06:02;;;;;;;3.17;2.00;;;;;;;;;;10314291;28;20077;-67
2022/04/08 03:11:04;;;;;;;3.33;2.22;;;;;;;;;;10313456;28;20409;-67
2022/04/08 03:16:08;;;;;;;3.97;2.30;;;;;;;;;;10330223;28;20318;-66
2022/04/08 03:21:10;;;;;;;3.40;2.15;;;;;;;;;;10346201;28;20262;-67
2022/04/08 03:26:12;;;;;;;11.18;2.63;;;;;;;;;;10315998;28;20082;-67
2022/04/08 03:31:16;;;;;;;4.00;1.92;;;;;;;;;;10334202;28;20084;-66
2022/04/08 03:36:18;;;;;;;5.88;2.08;;;;;;;;;;10342107;28;20077;-66
2022/04/08 03:41:21;;;;;;;8.18;2.42;;;;;;;;;;10350429;28;20385;-67
2022/04/08 03:46:25;;;;;;;5.45;2.22;;;;;;;;;;10322399;28;20050;-67
2022/04/08 03:51:35;;;;;;;2.28;2.08;;;;;;;;;;10286093;28;20079;-66
2022/04/08 03:56:38;;;;;;;4.03;2.60;;;;;;;;;;10292454;28;20261;-66
2022/04/08 04:01:42;;;;;;;8.13;2.88;;;;;;;;;;10351579;28;20089;-66
2022/04/08 04:06:44;;;;;;;2.80;2.40;;;;;;;;;;10352960;28;20058;-66
2022/04/08 04:11:47;;;;;;;4.78;2.30;;;;;;;;;;10350271;28;20085;-67
2022/04/08 04:16:50;;;;;;;4.40;2.45;;;;;;;;;;10322533;28;20078;-67
2022/04/08 04:21:53;;;;;;;3.25;2.63;;;;;;;;;;10311810;28;20293;-66
2022/04/08 04:26:55;;;;;;;8.90;3.00;;;;;;;;;;10311201;28;20066;-66
2022/04/08 04:31:59;;;;;;;3.80;2.65;;;;;;;;;;10312092;28;20054;-67
2022/04/08 04:37:01;;;;;;;4.75;2.20;;;;;;;;;;10329427;28;20085;-68
2022/04/08 04:42:06;;;;;;;6.03;2.83;;;;;;;;;;10334212;28;20227;-70
2022/04/08 04:47:10;;;;;;;3.07;2.57;;;;;;;;;;10351453;28;20070;-67
2022/04/08 04:52:12;;;;;;;6.95;2.50;;;;;;;;;;10329175;28;20050;-68
2022/04/08 04:57:15;;;;;;;3.80;2.80;;;;;;;;;;10342976;28;20069;-71
2022/04/08 05:02:19;;;;;;;5.30;2.25;;;;;;;;;;10338725;28;20039;-71
2022/04/08 05:07:21;;;;;;;2.60;2.40;;;;;;;;;;10332126;28;20084;-67
2022/04/08 05:12:24;;;;;;;4.22;3.63;;;;;;;;;;10318694;28;20062;-67
2022/04/08 05:17:28;;;;;;;5.78;3.70;;;;;;;;;;10351240;28;20341;-69
2022/04/08 05:22:31;;;;;;;8.73;4.97;;;;;;;;;;10314638;28;20052;-67
2022/04/08 05:27:37;;;;;;;4.72;3.67;;;;;;;;;;10310095;28;20070;-67
2022/04/08 05:32:41;;;;;;;2.80;2.60;;;;;;;;;;10323590;28;20043;-68
2022/04/08 05:37:46;;;;;;;2.67;2.28;;;;;;;;;;10309139;28;20054;-68
2022/04/08 05:42:48;;;;;;;6.00;3.63;;;;;;;;;;10330200;28;20316;-69
2022/04/08 05:47:54;;;;;;;7.45;4.07;;;;;;;;;;10332610;28;20066;-66
2022/04/08 05:52:56;;;;;;;3.92;2.30;;;;;;;;;;10345938;28;20039;-68
2022/04/08 05:57:59;;;;;;;4.05;2.10;;;;;;;;;;10333920;28;20086;-67
2022/04/08 06:03:02;;;;;;;2.60;1.70;;;;;;;;;;10334902;28;20061;-68
2022/04/08 06:08:06;;;;;;;3.78;2.08;;;;;;;;;;10336882;28;20055;-68
2022/04/08 06:13:08;;;;;;;3.30;2.53;;;;;;;;;;10349732;28;20458;-66
2022/04/08 06:18:13;;;;;;;4.05;2.08;;;;;;;;;;10307719;28;20066;-67
2022/04/08 06:23:15;;;;;;;3.20;1.88;;;;;;;;;;10318396;28;20106;-68
2022/04/08 06:28:18;;;;;;;1.80;1.70;;;;;;;;;;10306801;28;20117;-68
2022/04/08 06:33:22;;;;;;;4.68;2.10;;;;;;;;;;10356294;28;20046;-67
2022/04/08 06:38:25;;;;;;;2.63;1.58;;;;;;;;;;10315685;28;20227;-68
2022/04/08 06:43:27;;;;;;;1.90;1.10;;;;;;;;;;10315682;28;20288;-67
2022/04/08 06:48:31;;;;;;;1.50;1.30;;;;;;;;;;10315510;28;20102;-68
2022/04/08 06:53:35;;;;;;;2.45;1.63;;;;;;;;;;10315631;28;20133;-67
2022/04/08 06:58:39;;;;;;;2.85;1.00;;;;;;;;;;10324454;28;20053;-67
2022/04/08 07:03:42;;;;;;;3.05;2.72;;;;;;;;;;10318074;28;20085;-68
2022/04/08 07:08:45;;;;;;;2.63;1.50;;;;;;;;;;10342061;28;20408;-67
2022/04/08 07:13:47;;;;;;;1.60;1.50;;;;;;;;;;10340725;28;20053;-67
2022/04/08 07:18:51;;;;;;;2.55;1.50;;;;;;;;;;10314546;28;20047;-68
2022/04/08 07:23:53;;;;;;;1.40;1.30;;;;;;;;;;10314751;28;20050;-68
2022/04/08 07:28:56;;;;;;;1.88;1.67;;;;;;;;;;10315392;28;20042;-67
2022/04/08 07:34:02;;;;;;;4.45;1.80;;;;;;;;;;10318103;28;20058;-68
2022/04/08 07:39:04;;;;;;;2.17;1.90;;;;;;;;;;10315367;28;20345;-68
2022/04/08 07:44:07;;;;;;;2.85;1.83;;;;;;;;;;10314107;28;20043;-67
2022/04/08 07:49:10;;;;;;;2.85;1.83;;;;;;;;;;10312291;28;20059;-68
2022/04/08 07:54:13;;;;;;;3.72;2.60;;;;;;;;;;10313760;28;20244;-67
2022/04/08 07:59:17;;;;;;;7.03;3.53;;;;;;;;;;10313269;28;20054;-68
2022/04/08 08:04:21;;;;;;;2.53;2.30;;;;;;;;;;10312052;28;20046;-68
2022/04/08 08:09:24;;;;;;;3.40;2.67;;;;;;;;;;10310906;28;20062;-68
2022/04/08 08:14:27;;;;;;;4.10;3.20;;;;;;;;;;10291582;28;20051;-68
2022/04/08 08:19:31;;;;;;;9.60;5.10;;;;;;;;;;10312322;28;20046;-68
2022/04/08 08:24:33;;;;;;;3.85;2.45;;;;;;;;;;10312752;28;20045;-69
2022/04/08 08:29:35;;;;;;;4.32;2.00;;;;;;;;;;10345261;28;20245;-69
2022/04/08 08:34:39;;;;;;;5.47;3.40;;;;;;;;;;10352503;28;20050;-69
2022/04/08 08:39:41;;;;;;;3.30;1.87;;;;;;;;;;10349673;28;20078;-69
2022/04/08 08:44:44;;;;;;;4.10;1.83;;;;;;;;;;10316725;28;20062;-70
2022/04/08 08:49:50;;;;;;;6.30;2.38;;;;;;;;;;10335466;28;20065;-70
2022/04/08 08:54:54;;;;;;;3.08;1.80;;;;;;;;;;10348589;28;20071;-70
2022/04/08 09:00:06;;;;;;;2.13;1.77;;;;;;;;;;10316641;28;20054;-67
2022/04/08 09:05:18;;;;;;;2.40;1.50;;;;;;;;;;10324561;28;20043;-69
2022/04/08 09:10:25;;;;;;;2.00;1.85;;;;;;;;;;10337832;28;20067;-69
2022/04/08 09:15:29;;;;;;;3.45;1.80;;;;;;;;;;10325557;28;20046;-69
2022/04/08 09:20:39;;;;;;;5.63;2.10;;;;;;;;;;10309964;28;20149;-67
2022/04/08 09:25:42;;;;;;;3.38;1.92;;;;;;;;;;10348780;28;20067;-71
2022/04/08 09:30:52;;;;;;;6.80;2.47;;;;;;;;;;10311839;28;20138;-70
2022/04/08 09:35:57;;;;;;;5.35;2.08;;;;;;;;;;10337788;28;20050;-69
2022/04/08 09:41:01;;;;;;;10.18;3.80;;;;;;;;;;10341378;28;20047;-70
2022/04/08 09:46:14;;;;;;;3.35;1.75;;;;;;;;;;10312735;28;20043;-70
2022/04/08 09:51:21;;;;;;;3.70;1.60;;;;;;;;;;10303921;28;20369;-71
2022/04/08 09:56:25;;;;;;;5.68;2.25;;;;;;;;;;10342106;28;20478;-70
2022/04/08 10:01:29;;;;;;;4.30;2.23;;;;;;;;;;10305813;28;20054;-69
2022/04/08 10:06:33;;;;;;;4.50;2.00;;;;;;;;;;10307498;28;20137;-71
2022/04/08 10:11:44;;;;;;;2.93;1.80;;;;;;;;;;10321807;28;20376;-71
2022/04/08 10:16:51;;;;;;;5.47;2.85;;;;;;;;;;10323092;28;20103;-69
2022/04/08 10:21:55;;;;;;;3.78;2.70;;;;;;;;;;10357102;28;20261;-71
2022/04/08 10:27:01;;;;;;;6.57;3.65;;;;;;;;;;10350511;28;20073;-70
2022/04/08 10:32:05;;;;;;;2.70;1.30;;;;;;;;;;10349069;28;20330;-72
2022/04/08 10:37:20;;;;;;;3.78;1.67;;;;;;;;;;10343064;28;20315;-74
2022/04/08 10:42:23;;;;;;;3.25;1.80;;;;;;;;;;10340429;28;20069;-72
2022/04/08 10:47:27;;;;;;;3.90;2.28;;;;;;;;;;10322408;28;20274;-68
2022/04/08 10:52:40;;;;;;;3.03;1.85;;;;;;;;;;10316363;28;20066;-70
2022/04/08 10:57:44;;;;;;;3.38;2.30;;;;;;;;;;10321123;28;20070;-72
2022/04/08 11:02:47;;;;;;;5.60;2.30;;;;;;;;;;10315871;28;20097;-76
2022/04/08 11:07:51;;;;;;;7.13;3.15;;;;;;;;;;10315945;28;20039;-69
2022/04/08 11:12:54;;;;;;;;;;;;;;;;;;10358595;28;20057;-73
2022/04/08 11:17:58;;;;;;;6.18;3.25;;;;;;;;;;10320919;28;19918;-69
2022/04/08 11:23:02;;;;;;;3.63;1.60;;;;;;;;;;10310277;28;20439;-69
2022/04/08 11:33:17;;;;;;;5.32;1.27;;;;;;;;;;11888452;22;20078;-73
2022/04/08 11:38:21;;;;;;;2.15;1.13;;;;;;;;;;10433944;28;20370;-72
2022/04/08 11:43:24;;;;;;;2.90;1.10;;;;;;;;;;10437028;28;20056;-72
2022/04/08 11:48:27;;;;;;;1.00;0.90;;;;;;;;;;10434930;28;20057;-72
2022/04/08 11:53:31;;;;;;;1.35;1.23;;;;;;;;;;10435510;28;20042;-72
2022/04/08 11:58:33;;;;;;;2.57;1.33;;;;;;;;;;10398298;28;20041;-74
2022/04/08 12:03:36;;;;;;;1.90;1.40;;;;;;;;;;10445770;28;20060;-72
2022/04/08 12:08:41;;;;;;;10.10;1.80;;;;;;;;;;10449325;28;20060;-72
2022/04/08 12:13:44;;;;;;;6.72;1.70;;;;;;;;;;10435834;28;20340;-73
2022/04/08 12:18:49;;;;;;;3.63;1.40;;;;;;;;;;10433320;28;20079;-73
2022/04/08 12:23:54;;;;;;;4.13;2.20;;;;;;;;;;10448195;28;20045;-71
2022/04/08 12:29:06;;;;;;;7.55;2.70;;;;;;;;;;10436538;28;20271;-70
2022/04/08 12:34:11;;;;;;;2.97;1.90;;;;;;;;;;10419428;28;20058;-72
2022/04/08 12:39:15;;;;;;;4.35;2.67;;;;;;;;;;10392982;28;20284;-71
2022/04/08 12:44:17;;;;;;;2.83;2.20;;;;;;;;;;10392383;28;20049;-73
2022/04/08 12:49:19;;;;;;;3.90;2.50;;;;;;;;;;10393585;28;20061;-72
2022/04/08 12:54:24;;;;;;;7.53;2.95;;;;;;;;;;10393116;28;20229;-71
2022/04/08 12:59:27;;;;;;;4.95;2.78;;;;;;;;;;10392309;28;20377;-71
2022/04/08 13:04:30;;;;;;;8.20;2.75;;;;;;;;;;10393642;28;20050;-71
2022/04/08 13:09:34;;;;;;;6.72;2.85;;;;;;;;;;10391822;28;20045;-71
2022/04/08 13:14:36;;;;;;;4.65;3.17;;;;;;;;;;10392225;28;20050;-71
2022/04/08 13:19:38;;;;;;;7.63;3.85;;;;;;;;;;10393701;28;20252;-71
2022/04/08 13:24:42;;;;;;;8.40;4.15;;;;;;;;;;10391313;28;20348;-73
2022/04/08 13:29:48;;;;;;;9.63;2.95;;;;;;;;;;10392016;28;20432;-72
2022/04/08 13:34:51;;;;;;;10.10;2.88;;;;;;;;;;10391105;28;20053;-73
2022/04/08 13:39:55;;;;;;;12.75;4.20;;;;;;;;;;10391937;28;20042;-74
2022/04/08 13:44:57;;;;;;;8.52;2.92;;;;;;;;;;10392669;28;20050;-75
2022/04/08 13:49:59;;;;;;;5.15;3.00;;;;;;;;;;10390630;28;20049;-71
2022/04/08 13:55:04;;;;;;;10.45;2.70;;;;;;;;;;10389797;28;20351;-71
2022/04/08 14:00:08;;;;;;;8.07;2.37;;;;;;;;;;10392369;28;20194;-73
2022/04/08 14:05:24;;;;;;;8.13;2.92;;;;;;;;;;10371463;28;20105;-71
2022/04/08 14:10:28;;;;;;;8.32;4.20;;;;;;;;;;10370418;28;20049;-72
2022/04/08 14:15:31;;;;;;;10.70;4.78;;;;;;;;;;10399603;28;20042;-71
2022/04/08 14:20:34;;;;;;;7.03;2.78;;;;;;;;;;10394806;28;20053;-73
2022/04/08 14:25:38;;;;;;;7.90;3.78;;;;;;;;;;10397884;28;20041;-71
2022/04/08 14:30:41;;;;;;;10.20;3.03;;;;;;;;;;10399428;28;20217;-70
2022/04/08 14:35:44;;;;;;;4.40;2.63;;;;;;;;;;10402092;28;20057;-72
2022/04/08 14:40:49;;;;;;;14.52;3.47;;;;;;;;;;10398254;28;20115;-71
2022/04/08 14:45:51;;;;;;;;;;;;;;;;;;10403737;28;20112;-73
2022/04/08 14:50:53;;;;;;;7.05;2.97;;;;;;;;;;10396583;28;19956;-71
2022/04/08 14:55:57;;;;;;;13.43;3.60;;;;;;;;;;10397477;28;20383;-71
2022/04/08 15:00:59;;;;;;;7.00;3.13;;;;;;;;;;10396728;28;20076;-72
2022/04/08 15:06:01;;;;;;;13.15;4.57;;;;;;;;;;10397422;28;20046;-72
2022/04/08 15:11:06;;;;;;;20.63;4.43;;;;;;;;;;10397499;28;20107;-71
2022/04/08 15:16:08;;;;;;;7.88;3.55;;;;;;;;;;10395013;28;20054;-71
2022/04/08 15:21:11;;;;;;;11.77;3.25;;;;;;;;;;10396405;28;20046;-72
2022/04/08 15:26:14;;;;;;;8.95;2.40;;;;;;;;;;10397534;28;20213;-73
2022/04/08 15:31:17;;;;;;;9.27;2.78;;;;;;;;;;10396236;28;20045;-73
2022/04/08 15:36:20;;;;;;;9.43;2.80;;;;;;;;;;10395400;28;20046;-74
2022/04/08 15:41:23;;;;;;;13.27;4.85;;;;;;;;;;10395607;28;20042;-70
2022/04/08 15:46:27;;;;;;;13.55;6.18;;;;;;;;;;10396543;28;20337;-69
2022/04/08 15:51:29;;;;;;;11.82;3.45;;;;;;;;;;10395547;28;20074;-71
2022/04/08 15:56:33;;;;;;;7.10;3.30;;;;;;;;;;10395151;28;20280;-71
2022/04/08 16:01:36;;;;;;;8.85;3.25;;;;;;;;;;10391406;28;20053;-69
2022/04/08 16:06:38;;;;;;;9.85;3.17;;;;;;;;;;10395848;28;20057;-70
2022/04/08 16:11:41;;;;;;;6.80;3.20;;;;;;;;;;10393771;28;20052;-69
2022/04/08 16:16:47;;;;;;;8.77;3.30;;;;;;;;;;10392117;28;20088;-69
2022/04/08 16:21:50;;;;;;;10.02;2.97;;;;;;;;;;10394326;28;20054;-72
2022/04/08 16:26:54;;;;;;;8.27;3.30;;;;;;;;;;10390312;28;20264;-72
2022/04/08 16:31:56;;;;;;;9.48;3.83;;;;;;;;;;10377104;28;20240;-71
2022/04/08 16:36:59;;;;;;;9.60;2.50;;;;;;;;;;10392020;28;20069;-72
2022/04/08 16:42:04;;;;;;;8.65;2.97;;;;;;;;;;10388878;28;20065;-71
2022/04/08 16:47:07;;;;;;;6.40;2.90;;;;;;;;;;10352567;28;20066;-72
2022/04/08 16:52:10;;;;;;;6.97;2.78;;;;;;;;;;10365465;28;20077;-70
2022/04/08 16:57:13;;;;;;;6.43;2.65;;;;;;;;;;10392567;28;20056;-71
2022/04/08 17:02:16;;;;;;;6.70;2.67;;;;;;;;;;10394075;28;20152;-70
2022/04/08 17:07:18;;;;;;;6.55;3.28;;;;;;;;;;10392848;28;20076;-69
2022/04/08 17:12:22;;;;;;;9.05;3.03;;;;;;;;;;10392906;28;20038;-70
2022/04/08 17:17:25;;;;;;;9.63;3.55;;;;;;;;;;10393054;28;20081;-72
2022/04/08 17:22:28;;;;;;;8.32;3.45;;;;;;;;;;10392571;28;20053;-72
2022/04/08 17:27:32;;;;;;;9.32;4.68;;;;;;;;;;10392091;28;20393;-71
2022/04/08 17:32:34;;;;;;;12.50;6.40;;;;;;;;;;10432984;28;20112;-70
2022/04/08 17:37:38;;;;;;;6.05;3.53;;;;;;;;;;10433471;28;20084;-71
2022/04/08 17:42:42;;;;;;;11.48;4.65;;;;;;;;;;10409900;28;20224;-72
2022/04/08 17:47:54;;;;;;;9.98;5.05;;;;;;;;;;10400973;28;20092;-72
2022/04/08 17:52:57;;;;;;;9.27;3.90;;;;;;;;;;10399688;28;20057;-70
2022/04/08 17:58:00;;;;;;;8.13;4.18;;;;;;;;;;10396671;28;20103;-71
2022/04/08 18:03:03;;;;;;;10.85;4.93;;;;;;;;;;10399616;28;20081;-69
2022/04/08 18:08:07;;;;;;;7.07;3.65;;;;;;;;;;10400357;28;20084;-72
2022/04/08 18:13:10;;;;;;;11.93;4.30;;;;;;;;;;10397971;28;20061;-70
2022/04/08 18:18:14;;;;;;;11.18;4.30;;;;;;;;;;10398990;28;20042;-71
2022/04/08 18:23:17;;;;;;;8.30;4.68;;;;;;;;;;10399328;28;20272;-71
2022/04/08 18:28:21;;;;;;;13.45;5.35;;;;;;;;;;10397979;28;20057;-71
2022/04/08 18:33:24;;;;;;;13.40;5.93;;;;;;;;;;10396747;28;20058;-69
2022/04/08 18:38:27;;;;;;;19.00;6.50;;;;;;;;;;10411605;28;20096;-72
2022/04/08 18:43:34;;;;;;;14.15;5.72;;;;;;;;;;10397114;28;20042;-69
2022/04/08 18:48:36;;;;;;;12.02;5.57;;;;;;;;;;10410481;28;20356;-71
2022/04/08 18:53:39;;;;;;;10.88;4.88;;;;;;;;;;10396277;28;20046;-69
2022/04/08 18:58:42;;;;;;;10.50;5.88;;;;;;;;;;10408191;28;20049;-71
2022/04/08 19:03:45;;;;;;;15.15;5.03;;;;;;;;;;10425492;28;20068;-71
2022/04/08 19:08:47;;;;;;;11.93;5.70;;;;;;;;;;10407218;28;20072;-72
2022/04/08 19:13:51;;;;;;;32.03;8.93;;;;;;;;;;10406183;28;20045;-70
2022/04/08 19:18:53;;;;;;;19.63;7.63;;;;;;;;;;10396525;28;20068;-72
2022/04/08 19:23:55;;;;;;;22.88;9.88;;;;;;;;;;10393183;28;20061;-69
2022/04/08 19:29:00;;;;;;;21.95;7.32;;;;;;;;;;10395325;28;20089;-70
2022/04/08 19:34:02;;;;;;;11.77;6.13;;;;;;;;;;10395605;28;20053;-72
2022/04/08 19:39:06;;;;;;;12.68;6.70;;;;;;;;;;10395831;28;20052;-69
2022/04/08 19:44:10;;;;;;;19.40;8.07;;;;;;;;;;10393438;28;20038;-73
2022/04/08 19:49:14;;;;;;;14.25;7.97;;;;;;;;;;10428468;28;20202;-72
2022/04/08 19:54:17;;;;;;;18.20;8.10;;;;;;;;;;10406357;28;20050;-70
2022/04/08 19:59:21;;;;;;;17.20;7.18;;;;;;;;;;10396654;28;20046;-73
2022/04/08 20:04:23;;;;;;;16.50;7.20;;;;;;;;;;10394286;28;20050;-70
2022/04/08 20:09:26;;;;;;;20.42;8.10;;;;;;;;;;10393130;28;20092;-71
2022/04/08 20:14:30;;;;;;;15.75;7.93;;;;;;;;;;10400797;28;20079;-72
2022/04/08 20:19:32;;;;;;;18.30;7.93;;;;;;;;;;10396772;28;20336;-71
2022/04/08 20:24:37;;;;;;;18.75;7.93;;;;;;;;;;10394350;28;20088;-70
2022/04/08 20:29:41;;;;;;;17.90;8.38;;;;;;;;;;10392363;28;20046;-69
2022/04/08 20:34:44;;;;;;;23.33;11.60;;;;;;;;;;10393391;28;20053;-71
2022/04/08 20:39:47;;;;;;;28.73;11.73;;;;;;;;;;10392789;28;20083;-71
2022/04/08 20:44:51;;;;;;;32.33;11.00;;;;;;;;;;10396614;28;20049;-72
2022/04/08 20:49:53;;;;;;;22.40;9.35;;;;;;;;;;10423005;28;20046;-71
2022/04/08 20:54:55;;;;;;;32.08;9.88;;;;;;;;;;10393779;28;20064;-71
2022/04/08 21:00:01;;;;;;;27.50;11.40;;;;;;;;;;10392596;28;20336;-73
2022/04/08 21:05:04;;;;;;;31.48;12.55;;;;;;;;;;10374404;28;20053;-69
2022/04/08 21:10:07;;;;;;;38.15;16.33;;;;;;;;;;10393631;28;20260;-72
2022/04/08 21:15:11;;;;;;;50.53;18.90;;;;;;;;;;10411498;28;20045;-74
2022/04/08 21:20:14;;;;;;;53.45;20.42;;;;;;;;;;10390065;28;20359;-68
2022/04/08 21:25:16;;;;;;;45.15;18.92;;;;;;;;;;10384496;28;20057;-73
2022/04/08 21:30:20;;;;;;;43.42;18.73;;;;;;;;;;10392403;28;20494;-71
2022/04/08 21:35:24;;;;;;;41.35;17.77;;;;;;;;;;10393917;28;20233;-70
2022/04/08 21:40:26;;;;;;;40.65;18.63;;;;;;;;;;10403650;28;20056;-69
2022/04/08 21:45:30;;;;;;;37.58;19.30;;;;;;;;;;10434659;28;20057;-72
2022/04/08 21:50:33;;;;;;;34.90;18.20;;;;;;;;;;10411051;28;20065;-70
2022/04/08 21:55:50;;;;;;;40.78;17.42;;;;;;;;;;10393097;28;20406;-74
2022/04/08 22:00:55;;;;;;;37.13;17.05;;;;;;;;;;10391893;28;20054;-71
2022/04/08 22:05:58;;;;;;;;;;;;;;;;;;10393004;28;20042;-70
2022/04/08 22:11:00;;;;;;;36.72;16.92;;;;;;;;;;10394950;28;19949;-71
2022/04/08 22:16:05;;;;;;;33.80;17.17;;;;;;;;;;10391699;28;20356;-72
2022/04/08 22:21:08;;;;;;;32.30;16.48;;;;;;;;;;10389947;28;20348;-71
2022/04/08 22:26:10;;;;;;;31.95;16.10;;;;;;;;;;10392006;28;20262;-69
2022/04/08 22:31:18;;;;;;;37.33;17.13;;;;;;;;;;10396594;28;20045;-71
2022/04/08 22:36:21;;;;;;;33.08;16.35;;;;;;;;;;10397012;28;20248;-69
2022/04/08 22:41:23;;;;;;;33.83;16.58;;;;;;;;;;10398298;28;20353;-71
2022/04/08 22:46:27;;;;;;;34.80;16.95;;;;;;;;;;10396984;28;20272;-73
2022/04/08 22:51:29;;;;;;;34.28;16.60;;;;;;;;;;10397028;28;20041;-70
2022/04/08 22:56:31;;;;;;;31.60;16.92;;;;;;;;;;10397314;28;20042;-71
2022/04/08 23:01:35;;;;;;;38.75;17.13;;;;;;;;;;10398507;28;20050;-71
2022/04/08 23:06:37;;;;;;;31.67;15.93;;;;;;;;;;10397203;28;20057;-70
2022/04/08 23:11:40;;;;;;;29.33;16.20;;;;;;;;;;10409300;28;20045;-70
2022/04/08 23:16:43;;;;;;;31.83;15.32;;;;;;;;;;10397583;28;20081;-70
2022/04/08 23:21:46;;;;;;;28.60;14.50;;;;;;;;;;10396042;28;20210;-69
2022/04/08 23:26:49;;;;;;;30.65;15.02;;;;;;;;;;10398341;28;20073;-70
2022/04/08 23:31:52;;;;;;;30.27;14.98;;;;;;;;;;10394885;28;20096;-70
2022/04/08 23:36:55;;;;;;;38.10;15.90;;;;;;;;;;10403672;28;20061;-69
2022/04/08 23:41:58;;;;;;;32.83;16.33;;;;;;;;;;10395126;28;20053;-69
2022/04/08 23:47:01;;;;;;;33.55;16.92;;;;;;;;;;10393600;28;20061;-69
2022/04/08 23:52:04;;;;;;;34.13;16.40;;;;;;;;;;10404891;28;20372;-70
2022/04/08 23:57:06;;;;;;;32.70;16.88;;;;;;;;;;10395006;28;20233;-70
